sensor_id;sensor_type;location;lat;lon;timestamp;pressure;altitude;pressure_sealevel;temperature;humidity
73594;BME280;62064;53.406;23.500;2022-08-04T00:02:09;100078.22;;;23.58;59.16
73594;BME280;62064;53.406;23.500;2022-08-04T00:04:44;100085.94;;;23.61;59.56
73594;BME280;62064;53.406;23.500;2022-08-04T00:07:31;100091.66;;;23.59;59.50
73594;BME280;62064;53.406;23.500;2022-08-04T00:10:02;100092.75;;;23.58;59.36
73594;BME280;62064;53.406;23.500;2022-08-04T00:12:31;100093.84;;;23.57;59.65
73594;BME280;62064;53.406;23.500;2022-08-04T00:14:59;100071.38;;;23.45;59.78
73594;BME280;62064;53.406;23.500;2022-08-04T00:17:38;100090.56;;;23.55;59.82
73594;BME280;62064;53.406;23.500;2022-08-04T00:20:06;100079.34;;;23.47;59.92
73594;BME280;62064;53.406;23.500;2022-08-04T00:22:36;100086.72;;;23.51;59.64
73594;BME280;62064;53.406;23.500;2022-08-04T00:25:06;100086.16;;;23.49;59.88
73594;BME280;62064;53.406;23.500;2022-08-04T00:27:32;100085.91;;;23.51;59.89
73594;BME280;62064;53.406;23.500;2022-08-04T00:29:58;100086.47;;;23.48;60.16
73594;BME280;62064;53.406;23.500;2022-08-04T00:32:25;100065.31;;;23.33;59.91
73594;BME280;62064;53.406;23.500;2022-08-04T00:34:54;100089.44;;;23.46;60.20
73594;BME280;62064;53.406;23.500;2022-08-04T00:37:20;100091.66;;;23.44;60.02
73594;BME280;62064;53.406;23.500;2022-08-04T00:39:48;100094.38;;;23.44;59.95
73594;BME280;62064;53.406;23.500;2022-08-04T00:42:25;100084.53;;;23.43;60.28
73594;BME280;62064;53.406;23.500;2022-08-04T00:50:50;100092.44;;;23.39;60.29
73594;BME280;62064;53.406;23.500;2022-08-04T00:58:46;100100.66;;;23.39;60.34
73594;BME280;62064;53.406;23.500;2022-08-04T01:04:09;100088.31;;;23.27;60.28
73594;BME280;62064;53.406;23.500;2022-08-04T01:09:33;100086.66;;;23.26;60.33
73594;BME280;62064;53.406;23.500;2022-08-04T01:12:25;100112.94;;;23.37;60.33
73594;BME280;62064;53.406;23.500;2022-08-04T01:15:04;100115.13;;;23.35;60.21
73594;BME280;62064;53.406;23.500;2022-08-04T01:20:07;100113.22;;;23.35;60.21
73594;BME280;62064;53.406;23.500;2022-08-04T01:30:56;100112.94;;;23.27;60.18
73594;BME280;62064;53.406;23.500;2022-08-04T01:33:27;100116.75;;;23.31;60.57
73594;BME280;62064;53.406;23.500;2022-08-04T01:35:56;100109.09;;;23.23;60.51
73594;BME280;62064;53.406;23.500;2022-08-04T01:38:35;100113.50;;;23.29;60.49
73594;BME280;62064;53.406;23.500;2022-08-04T01:41:07;100098.69;;;23.15;60.57
73594;BME280;62064;53.406;23.500;2022-08-04T01:43:44;100120.59;;;23.25;60.34
73594;BME280;62064;53.406;23.500;2022-08-04T01:46:12;100108.00;;;23.24;60.83
73594;BME280;62064;53.406;23.500;2022-08-04T01:48:39;100109.34;;;23.21;60.79
73594;BME280;62064;53.406;23.500;2022-08-04T01:51:08;100113.19;;;23.25;60.55
73594;BME280;62064;53.406;23.500;2022-08-04T01:53:37;100089.09;;;23.12;60.95
73594;BME280;62064;53.406;23.500;2022-08-04T01:56:07;100093.78;;;23.17;60.55
73594;BME280;62064;53.406;23.500;2022-08-04T01:58:35;100091.56;;;23.14;60.79
73594;BME280;62064;53.406;23.500;2022-08-04T02:01:05;100083.34;;;23.09;60.39
73594;BME280;62064;53.406;23.500;2022-08-04T02:03:32;100082.25;;;23.05;60.08
73594;BME280;62064;53.406;23.500;2022-08-04T02:11:31;100075.97;;;23.04;60.23
73594;BME280;62064;53.406;23.500;2022-08-04T02:14:08;100100.88;;;23.18;60.54
73594;BME280;62064;53.406;23.500;2022-08-04T02:19:42;100089.38;;;23.11;60.97
73594;BME280;62064;53.406;23.500;2022-08-04T02:22:16;100076.78;;;23.05;60.43
73594;BME280;62064;53.406;23.500;2022-08-04T02:24:49;100088.84;;;23.09;60.23
73594;BME280;62064;53.406;23.500;2022-08-04T02:27:24;100076.47;;;23.01;60.48
73594;BME280;62064;53.406;23.500;2022-08-04T02:29:58;100091.00;;;23.12;60.78
73594;BME280;62064;53.406;23.500;2022-08-04T02:32:28;100083.06;;;23.05;60.65
73594;BME280;62064;53.406;23.500;2022-08-04T02:35:14;100091.56;;;23.09;60.68
73594;BME280;62064;53.406;23.500;2022-08-04T02:37:55;100077.03;;;22.98;60.74
73594;BME280;62064;53.406;23.500;2022-08-04T02:40:28;100096.47;;;23.07;61.26
73594;BME280;62064;53.406;23.500;2022-08-04T02:42:56;100092.38;;;23.04;60.60
73594;BME280;62064;53.406;23.500;2022-08-04T02:45:24;100086.63;;;23.01;61.17
73594;BME280;62064;53.406;23.500;2022-08-04T02:47:52;100088.75;;;22.93;61.59
73594;BME280;62064;53.406;23.500;2022-08-04T02:50:20;100090.44;;;23.00;61.01
73594;BME280;62064;53.406;23.500;2022-08-04T02:52:47;100099.72;;;22.99;60.90
73594;BME280;62064;53.406;23.500;2022-08-04T02:55:16;100096.44;;;22.97;61.10
73594;BME280;62064;53.406;23.500;2022-08-04T02:57:44;100089.34;;;22.96;61.06
73594;BME280;62064;53.406;23.500;2022-08-04T03:00:12;100071.25;;;22.84;61.38
73594;BME280;62064;53.406;23.500;2022-08-04T03:11:15;100083.00;;;22.80;61.20
73594;BME280;62064;53.406;23.500;2022-08-04T03:22:12;100100.22;;;22.85;61.37
73594;BME280;62064;53.406;23.500;2022-08-04T03:30:04;100099.69;;;22.83;60.80
73594;BME280;62064;53.406;23.500;2022-08-04T03:38:26;100106.22;;;22.82;61.20
73594;BME280;62064;53.406;23.500;2022-08-04T03:49:52;100126.44;;;22.81;61.22
73594;BME280;62064;53.406;23.500;2022-08-04T03:52:50;100108.38;;;22.70;61.18
73594;BME280;62064;53.406;23.500;2022-08-04T04:06:58;100144.78;;;22.86;61.00
73594;BME280;62064;53.406;23.500;2022-08-04T04:12:55;100150.25;;;22.86;60.52
73594;BME280;62064;53.406;23.500;2022-08-04T04:18:46;100166.16;;;22.89;60.87
73594;BME280;62064;53.406;23.500;2022-08-04T04:21:32;100163.66;;;22.87;60.59
73594;BME280;62064;53.406;23.500;2022-08-04T04:27:27;100169.13;;;22.87;60.45
73594;BME280;62064;53.406;23.500;2022-08-04T04:30:05;100166.41;;;22.87;60.64
73594;BME280;62064;53.406;23.500;2022-08-04T04:35:58;100169.97;;;22.88;60.87
73594;BME280;62064;53.406;23.500;2022-08-04T04:47:22;100174.34;;;22.89;60.70
73594;BME280;62064;53.406;23.500;2022-08-04T04:50:02;100165.84;;;22.85;60.70
73594;BME280;62064;53.406;23.500;2022-08-04T04:52:48;100179.53;;;22.90;60.90
73594;BME280;62064;53.406;23.500;2022-08-04T04:55:25;100174.06;;;22.90;60.71
73594;BME280;62064;53.406;23.500;2022-08-04T04:57:57;100165.84;;;22.85;60.74
73594;BME280;62064;53.406;23.500;2022-08-04T05:00:33;100170.75;;;22.83;60.71
73594;BME280;62064;53.406;23.500;2022-08-04T05:03:14;100169.69;;;22.89;60.36
73594;BME280;62064;53.406;23.500;2022-08-04T05:08:59;100175.19;;;22.94;60.62
73594;BME280;62064;53.406;23.500;2022-08-04T05:14:28;100180.94;;;22.98;60.22
73594;BME280;62064;53.406;23.500;2022-08-04T05:17:08;100184.25;;;23.00;59.91
73594;BME280;62064;53.406;23.500;2022-08-04T05:22:07;100169.41;;;22.91;59.05
73594;BME280;62064;53.406;23.500;2022-08-04T05:24:41;100177.41;;;23.03;59.54
73594;BME280;62064;53.406;23.500;2022-08-04T05:27:13;100176.28;;;22.99;58.69
73594;BME280;62064;53.406;23.500;2022-08-04T05:29:46;100183.16;;;23.06;59.14
73594;BME280;62064;53.406;23.500;2022-08-04T05:32:14;100157.41;;;22.92;58.35
73594;BME280;62064;53.406;23.500;2022-08-04T05:35:08;100185.34;;;23.04;57.95
73594;BME280;62064;53.406;23.500;2022-08-04T05:37:37;100196.00;;;23.06;58.17
73594;BME280;62064;53.406;23.500;2022-08-04T05:40:06;100191.34;;;23.06;57.77
73594;BME280;62064;53.406;23.500;2022-08-04T05:42:36;100194.09;;;23.06;58.03
73594;BME280;62064;53.406;23.500;2022-08-04T05:45:04;100181.50;;;23.05;58.30
73594;BME280;62064;53.406;23.500;2022-08-04T05:47:32;100188.63;;;23.06;58.23
73594;BME280;62064;53.406;23.500;2022-08-04T05:50:02;100188.38;;;23.08;57.93
73594;BME280;62064;53.406;23.500;2022-08-04T05:52:31;100189.19;;;23.08;56.93
73594;BME280;62064;53.406;23.500;2022-08-04T05:54:58;100185.59;;;23.03;57.25
73594;BME280;62064;53.406;23.500;2022-08-04T05:57:25;100186.97;;;23.05;57.14
73594;BME280;62064;53.406;23.500;2022-08-04T05:59:54;100194.91;;;23.07;57.42
73594;BME280;62064;53.406;23.500;2022-08-04T06:02:22;100193.84;;;23.08;58.16
73594;BME280;62064;53.406;23.500;2022-08-04T06:04:50;100191.66;;;23.05;57.99
73594;BME280;62064;53.406;23.500;2022-08-04T06:07:18;100197.66;;;23.07;57.85
73594;BME280;62064;53.406;23.500;2022-08-04T06:09:44;100196.56;;;23.08;58.13
73594;BME280;62064;53.406;23.500;2022-08-04T06:12:16;100201.75;;;23.09;57.73
73594;BME280;62064;53.406;23.500;2022-08-04T06:14:48;100201.50;;;23.11;57.90
73594;BME280;62064;53.406;23.500;2022-08-04T06:17:21;100206.97;;;23.11;57.83
73594;BME280;62064;53.406;23.500;2022-08-04T06:19:51;100200.66;;;23.05;57.37
73594;BME280;62064;53.406;23.500;2022-08-04T06:22:18;100195.47;;;23.04;57.40
73594;BME280;62064;53.406;23.500;2022-08-04T06:24:47;100205.06;;;23.11;58.16
73594;BME280;62064;53.406;23.500;2022-08-04T06:27:15;100200.38;;;23.07;57.64
73594;BME280;62064;53.406;23.500;2022-08-04T06:29:43;100206.97;;;23.11;58.06
73594;BME280;62064;53.406;23.500;2022-08-04T06:32:10;100197.66;;;23.07;57.86
73594;BME280;62064;53.406;23.500;2022-08-04T06:34:55;100207.25;;;23.14;58.37
73594;BME280;62064;53.406;23.500;2022-08-04T06:37:24;100191.66;;;23.10;57.86
73594;BME280;62064;53.406;23.500;2022-08-04T06:39:52;100197.13;;;23.15;57.95
73594;BME280;62064;53.406;23.500;2022-08-04T06:42:25;100194.94;;;23.12;58.24
73594;BME280;62064;53.406;23.500;2022-08-04T06:44:57;100198.78;;;23.16;57.56
73594;BME280;62064;53.406;23.500;2022-08-04T06:47:24;100197.44;;;23.18;57.96
73594;BME280;62064;53.406;23.500;2022-08-04T06:49:54;100202.06;;;23.18;57.65
73594;BME280;62064;53.406;23.500;2022-08-04T06:52:20;100206.50;;;23.24;58.22
73594;BME280;62064;53.406;23.500;2022-08-04T06:54:49;100204.84;;;23.23;58.23
73594;BME280;62064;53.406;23.500;2022-08-04T06:57:17;100203.47;;;23.25;57.67
73594;BME280;62064;53.406;23.500;2022-08-04T06:59:56;100201.00;;;23.24;58.24
73594;BME280;62064;53.406;23.500;2022-08-04T07:02:26;100199.66;;;23.26;57.64
73594;BME280;62064;53.406;23.500;2022-08-04T07:04:52;100198.81;;;23.26;57.70
73594;BME280;62064;53.406;23.500;2022-08-04T07:07:19;100200.22;;;23.28;58.22
73594;BME280;62064;53.406;23.500;2022-08-04T07:09:45;100199.94;;;23.30;57.88
73594;BME280;62064;53.406;23.500;2022-08-04T07:12:12;100204.84;;;23.33;57.86
73594;BME280;62064;53.406;23.500;2022-08-04T07:14:39;100197.47;;;23.33;57.83
73594;BME280;62064;53.406;23.500;2022-08-04T07:17:08;100192.84;;;23.29;57.67
73594;BME280;62064;53.406;23.500;2022-08-04T07:19:35;100192.00;;;23.33;58.04
73594;BME280;62064;53.406;23.500;2022-08-04T07:22:06;100192.28;;;23.37;57.67
73594;BME280;62064;53.406;23.500;2022-08-04T07:24:37;100198.31;;;23.39;57.84
73594;BME280;62064;53.406;23.500;2022-08-04T07:27:06;100199.97;;;23.40;57.60
73594;BME280;62064;53.406;23.500;2022-08-04T07:29:34;100191.75;;;23.40;57.83
73594;BME280;62064;53.406;23.500;2022-08-04T07:32:02;100194.00;;;23.43;57.57
73594;BME280;62064;53.406;23.500;2022-08-04T07:34:29;100195.63;;;23.44;57.35
73594;BME280;62064;53.406;23.500;2022-08-04T07:36:57;100196.47;;;23.45;57.70
73594;BME280;62064;53.406;23.500;2022-08-04T07:39:26;100192.34;;;23.47;57.58
73594;BME280;62064;53.406;23.500;2022-08-04T07:41:53;100176.75;;;23.43;57.20
73594;BME280;62064;53.406;23.500;2022-08-04T07:44:21;100185.81;;;23.48;57.78
73594;BME280;62064;53.406;23.500;2022-08-04T07:46:57;100185.78;;;23.53;57.45
73594;BME280;62064;53.406;23.500;2022-08-04T07:49:28;100166.63;;;23.43;57.17
73594;BME280;62064;53.406;23.500;2022-08-04T07:51:55;100190.75;;;23.56;57.51
73594;BME280;62064;53.406;23.500;2022-08-04T07:54:21;100190.19;;;23.59;57.23
73594;BME280;62064;53.406;23.500;2022-08-04T07:56:53;100177.31;;;23.55;57.26
73594;BME280;62064;53.406;23.500;2022-08-04T07:59:20;100188.56;;;23.63;57.77
73594;BME280;62064;53.406;23.500;2022-08-04T08:01:47;100165.28;;;23.56;57.88
73594;BME280;62064;53.406;23.500;2022-08-04T08:04:17;100153.22;;;23.52;57.89
73594;BME280;62064;53.406;23.500;2022-08-04T08:06:44;100181.72;;;23.71;57.39
73594;BME280;62064;53.406;23.500;2022-08-04T08:09:14;100177.63;;;23.73;57.74
73594;BME280;62064;53.406;23.500;2022-08-04T08:11:42;100178.44;;;23.74;57.96
73594;BME280;62064;53.406;23.500;2022-08-04T08:17:36;100179.53;;;23.78;57.99
73594;BME280;62064;53.406;23.500;2022-08-04T08:23:34;100179.81;;;23.81;57.93
73594;BME280;62064;53.406;23.500;2022-08-04T08:26:01;100176.00;;;23.82;57.36
73594;BME280;62064;53.406;23.500;2022-08-04T08:28:27;100162.84;;;23.74;57.57
73594;BME280;62064;53.406;23.500;2022-08-04T08:30:55;100175.72;;;23.84;57.39
73594;BME280;62064;53.406;23.500;2022-08-04T08:33:21;100171.88;;;23.85;57.85
73594;BME280;62064;53.406;23.500;2022-08-04T08:35:53;100174.91;;;23.89;57.21
73594;BME280;62064;53.406;23.500;2022-08-04T08:57:45;100179.81;;;24.02;57.80
73594;BME280;62064;53.406;23.500;2022-08-04T09:00:52;100175.44;;;24.06;58.03
73594;BME280;62064;53.406;23.500;2022-08-04T09:06:49;100176.25;;;24.06;57.45
73594;BME280;62064;53.406;23.500;2022-08-04T09:09:44;100170.53;;;24.08;57.42
73594;BME280;62064;53.406;23.500;2022-08-04T09:12:24;100172.72;;;24.11;57.40
73594;BME280;62064;53.406;23.500;2022-08-04T09:17:53;100176.81;;;24.13;57.89
73594;BME280;62064;53.406;23.500;2022-08-04T09:28:51;100179.59;;;24.18;57.79
73594;BME280;62064;53.406;23.500;2022-08-04T09:31:29;100173.53;;;24.21;58.03
73594;BME280;62064;53.406;23.500;2022-08-04T09:34:09;100171.09;;;24.20;58.11
73594;BME280;62064;53.406;23.500;2022-08-04T09:36:43;100167.81;;;24.23;58.04
73594;BME280;62064;53.406;23.500;2022-08-04T09:39:48;100165.88;;;24.23;57.99
73594;BME280;62064;53.406;23.500;2022-08-04T09:45:34;100160.66;;;24.27;57.75
73594;BME280;62064;53.406;23.500;2022-08-04T09:48:10;100167.81;;;24.28;58.39
73594;BME280;62064;53.406;23.500;2022-08-04T09:50:41;100168.34;;;24.30;58.43
73594;BME280;62064;53.406;23.500;2022-08-04T09:56:10;100159.84;;;24.31;58.32
73594;BME280;62064;53.406;23.500;2022-08-04T09:58:49;100154.09;;;24.23;58.25
73594;BME280;62064;53.406;23.500;2022-08-04T10:01:21;100168.59;;;24.33;58.01
73594;BME280;62064;53.406;23.500;2022-08-04T10:03:51;100161.47;;;24.32;58.37
73594;BME280;62064;53.406;23.500;2022-08-04T10:09:11;100160.13;;;24.35;58.30
73594;BME280;62064;53.406;23.500;2022-08-04T10:14:27;100150.25;;;24.34;57.92
73594;BME280;62064;53.406;23.500;2022-08-04T10:17:14;100154.34;;;24.37;57.64
73594;BME280;62064;53.406;23.500;2022-08-04T10:19:51;100152.16;;;24.33;57.82
73594;BME280;62064;53.406;23.500;2022-08-04T10:22:36;100151.88;;;24.35;57.21
73594;BME280;62064;53.406;23.500;2022-08-04T10:27:57;100154.34;;;24.37;57.10
73594;BME280;62064;53.406;23.500;2022-08-04T10:30:39;100159.81;;;24.37;56.20
73594;BME280;62064;53.406;23.500;2022-08-04T10:35:48;100152.16;;;24.39;56.08
73594;BME280;62064;53.406;23.500;2022-08-04T10:38:30;100157.63;;;24.39;55.72
73594;BME280;62064;53.406;23.500;2022-08-04T10:41:24;100155.72;;;24.39;55.89
73594;BME280;62064;53.406;23.500;2022-08-04T10:44:04;100145.31;;;24.36;55.88
73594;BME280;62064;53.406;23.500;2022-08-04T10:46:36;100138.47;;;24.33;55.58
73594;BME280;62064;53.406;23.500;2022-08-04T10:49:13;100153.81;;;24.40;55.70
73594;BME280;62064;53.406;23.500;2022-08-04T10:51:54;100141.19;;;24.39;55.20
73594;BME280;62064;53.406;23.500;2022-08-04T10:57:21;100152.41;;;24.42;54.93
73594;BME280;62064;53.406;23.500;2022-08-04T11:00:09;100146.13;;;24.42;54.81
73594;BME280;62064;53.406;23.500;2022-08-04T11:02:59;100151.34;;;24.43;54.47
73594;BME280;62064;53.406;23.500;2022-08-04T11:08:02;100145.84;;;24.43;54.61
73594;BME280;62064;53.406;23.500;2022-08-04T11:10:34;100140.63;;;24.47;55.32
73594;BME280;62064;53.406;23.500;2022-08-04T11:13:05;100137.63;;;24.43;54.91
73594;BME280;62064;53.406;23.500;2022-08-04T11:15:45;100143.09;;;24.48;55.09
73594;BME280;62064;53.406;23.500;2022-08-04T11:18:25;100147.47;;;24.49;54.65
73594;BME280;62064;53.406;23.500;2022-08-04T11:21:11;100141.97;;;24.49;54.39
73594;BME280;62064;53.406;23.500;2022-08-04T11:23:45;100129.97;;;24.40;54.11
73594;BME280;62064;53.406;23.500;2022-08-04T11:26:20;100141.16;;;24.49;53.93
73594;BME280;62064;53.406;23.500;2022-08-04T11:31:47;100141.97;;;24.54;53.49
73594;BME280;62064;53.406;23.500;2022-08-04T11:34:24;100123.09;;;24.48;52.75
73594;BME280;62064;53.406;23.500;2022-08-04T11:37:20;100116.78;;;24.47;51.73
73594;BME280;62064;53.406;23.500;2022-08-04T11:39:58;100111.84;;;24.49;51.80
73594;BME280;62064;53.406;23.500;2022-08-04T11:42:30;100121.13;;;24.53;51.54
73594;BME280;62064;53.406;23.500;2022-08-04T11:45:03;100110.75;;;24.50;50.63
73594;BME280;62064;53.406;23.500;2022-08-04T11:50:34;100118.38;;;24.58;49.23
73594;BME280;62064;53.406;23.500;2022-08-04T11:53:09;100104.16;;;24.51;49.14
73594;BME280;62064;53.406;23.500;2022-08-04T11:55:35;100113.47;;;24.55;48.12
73594;BME280;62064;53.406;23.500;2022-08-04T11:58:04;100117.28;;;24.59;48.91
73594;BME280;62064;53.406;23.500;2022-08-04T12:00:31;100120.03;;;24.59;48.90
73594;BME280;62064;53.406;23.500;2022-08-04T12:03:23;100108.50;;;24.57;48.30
73594;BME280;62064;53.406;23.500;2022-08-04T12:07:03;100122.47;;;24.66;48.23
73594;BME280;62064;53.406;23.500;2022-08-04T12:09:10;100106.84;;;24.66;46.56
73594;BME280;62064;53.406;23.500;2022-08-04T12:17:03;100103.84;;;24.68;46.22
73594;BME280;62064;53.406;23.500;2022-08-04T12:19:45;100104.38;;;24.70;45.54
73594;BME280;62064;53.406;23.500;2022-08-04T12:22:17;100104.38;;;24.70;45.02
73594;BME280;62064;53.406;23.500;2022-08-04T12:25:07;100097.22;;;24.69;44.79
73594;BME280;62064;53.406;23.500;2022-08-04T12:27:41;100097.22;;;24.69;44.84
73594;BME280;62064;53.406;23.500;2022-08-04T12:30:11;100089.31;;;24.62;44.88
73594;BME280;62064;53.406;23.500;2022-08-04T12:37:50;100081.06;;;24.67;45.20
73594;BME280;62064;53.406;23.500;2022-08-04T12:40:28;100082.16;;;24.66;45.57
73594;BME280;62064;53.406;23.500;2022-08-04T12:43:19;100088.75;;;24.70;45.29
73594;BME280;62064;53.406;23.500;2022-08-04T12:45:53;100080.50;;;24.70;46.20
73594;BME280;62064;53.406;23.500;2022-08-04T12:48:23;100086.53;;;24.72;46.51
73594;BME280;62064;53.406;23.500;2022-08-04T12:50:53;100081.59;;;24.69;46.04
73594;BME280;62064;53.406;23.500;2022-08-04T12:53:25;100083.50;;;24.74;45.86
73594;BME280;62064;53.406;23.500;2022-08-04T12:55:53;100078.84;;;24.74;46.04
73594;BME280;62064;53.406;23.500;2022-08-04T12:58:23;100083.50;;;24.74;45.85
73594;BME280;62064;53.406;23.500;2022-08-04T13:00:58;100068.44;;;24.71;46.29
73594;BME280;62064;53.406;23.500;2022-08-04T13:03:28;100058.84;;;24.69;46.44
73594;BME280;62064;53.406;23.500;2022-08-04T13:05:56;100073.34;;;24.79;45.92
73594;BME280;62064;53.406;23.500;2022-08-04T13:08:22;100082.41;;;24.80;45.43
73594;BME280;62064;53.406;23.500;2022-08-04T13:10:56;100073.34;;;24.79;45.58
73594;BME280;62064;53.406;23.500;2022-08-04T13:13:24;100070.03;;;24.83;44.97
73594;BME280;62064;53.406;23.500;2022-08-04T13:16:02;100078.28;;;24.88;45.12
73594;BME280;62064;53.406;23.500;2022-08-04T13:18:34;100079.34;;;24.92;45.21
73594;BME280;62064;53.406;23.500;2022-08-04T13:21:21;100062.66;;;24.88;44.74
73594;BME280;62064;53.406;23.500;2022-08-04T13:23:55;100072.75;;;24.93;44.79
73594;BME280;62064;53.406;23.500;2022-08-04T13:26:25;100070.00;;;24.93;45.15
73594;BME280;62064;53.406;23.500;2022-08-04T13:28:53;100049.50;;;24.80;44.44
73594;BME280;62064;53.406;23.500;2022-08-04T13:31:21;100059.63;;;24.85;44.32
73594;BME280;62064;53.406;23.500;2022-08-04T13:33:52;100058.25;;;24.87;44.04
73594;BME280;62064;53.406;23.500;2022-08-04T13:36:24;100043.72;;;24.76;44.53
73594;BME280;62064;53.406;23.500;2022-08-04T13:38:54;100049.22;;;24.76;44.61
73594;BME280;62064;53.406;23.500;2022-08-04T13:41:21;100040.47;;;24.74;44.53
73594;BME280;62064;53.406;23.500;2022-08-04T13:43:53;100042.88;;;24.81;44.43
73594;BME280;62064;53.406;23.500;2022-08-04T13:46:25;100035.81;;;24.70;45.31
73594;BME280;62064;53.406;23.500;2022-08-04T13:48:54;100048.66;;;24.79;45.21
73594;BME280;62064;53.406;23.500;2022-08-04T13:51:22;100042.09;;;24.75;44.93
73594;BME280;62064;53.406;23.500;2022-08-04T13:53:58;100039.88;;;24.77;45.31
73594;BME280;62064;53.406;23.500;2022-08-04T13:56:43;100035.53;;;24.71;45.31
73594;BME280;62064;53.406;23.500;2022-08-04T13:59:13;100049.75;;;24.78;44.92
73594;BME280;62064;53.406;23.500;2022-08-04T14:01:44;100039.13;;;24.72;44.94
73594;BME280;62064;53.406;23.500;2022-08-04T14:04:17;100043.44;;;24.78;45.05
73594;BME280;62064;53.406;23.500;2022-08-04T14:06:53;100041.03;;;24.71;45.07
73594;BME280;62064;53.406;23.500;2022-08-04T14:09:22;100038.81;;;24.68;44.54
73594;BME280;62064;53.406;23.500;2022-08-04T14:11:51;100040.72;;;24.73;44.80
73594;BME280;62064;53.406;23.500;2022-08-04T14:14:25;100038.81;;;24.73;44.86
73594;BME280;62064;53.406;23.500;2022-08-04T14:17:07;100043.72;;;24.76;44.46
73594;BME280;62064;53.406;23.500;2022-08-04T14:19:46;100043.72;;;24.76;45.18
73594;BME280;62064;53.406;23.500;2022-08-04T14:25:10;100044.53;;;24.77;44.73
73594;BME280;62064;53.406;23.500;2022-08-04T14:27:52;100033.91;;;24.70;45.30
73594;BME280;62064;53.406;23.500;2022-08-04T14:30:36;100034.41;;;24.77;44.69
73594;BME280;62064;53.406;23.500;2022-08-04T14:33:07;100030.84;;;24.77;44.67
73594;BME280;62064;53.406;23.500;2022-08-04T14:35:35;100027.28;;;24.76;44.77
73594;BME280;62064;53.406;23.500;2022-08-04T14:38:05;100030.00;;;24.76;44.92
73594;BME280;62064;53.406;23.500;2022-08-04T14:40:35;100019.09;;;24.71;44.70
73594;BME280;62064;53.406;23.500;2022-08-04T14:43:01;100026.75;;;24.74;45.29
73594;BME280;62064;53.406;23.500;2022-08-04T14:45:40;100021.00;;;24.76;44.54
73594;BME280;62064;53.406;23.500;2022-08-04T14:48:14;100019.09;;;24.71;44.56
73594;BME280;62064;53.406;23.500;2022-08-04T14:50:46;100016.88;;;24.73;44.56
73594;BME280;62064;53.406;23.500;2022-08-04T14:55:46;100019.03;;;24.76;44.60
73594;BME280;62064;53.406;23.500;2022-08-04T14:58:21;100010.81;;;24.76;44.25
73594;BME280;62064;53.406;23.500;2022-08-04T15:00:52;100014.13;;;24.78;44.51
73594;BME280;62064;53.406;23.500;2022-08-04T15:03:20;100016.31;;;24.76;44.44
73594;BME280;62064;53.406;23.500;2022-08-04T15:05:47;100011.88;;;24.80;44.45
73594;BME280;62064;53.406;23.500;2022-08-04T15:08:15;100020.13;;;24.80;44.71
73594;BME280;62064;53.406;23.500;2022-08-04T15:10:43;100022.06;;;24.80;44.67
73594;BME280;62064;53.406;23.500;2022-08-04T15:13:10;100016.03;;;24.78;45.16
73594;BME280;62064;53.406;23.500;2022-08-04T15:15:40;100017.38;;;24.80;44.57
73594;BME280;62064;53.406;23.500;2022-08-04T15:18:07;100022.06;;;24.80;44.98
73594;BME280;62064;53.406;23.500;2022-08-04T15:20:34;100006.47;;;24.75;44.77
73594;BME280;62064;53.406;23.500;2022-08-04T15:23:01;100020.13;;;24.80;45.33
73594;BME280;62064;53.406;23.500;2022-08-04T15:25:33;100011.63;;;24.77;44.91
73594;BME280;62064;53.406;23.500;2022-08-04T15:28:01;100005.63;;;24.75;44.36
73594;BME280;62064;53.406;23.500;2022-08-04T15:30:29;100010.81;;;24.76;44.85
73594;BME280;62064;53.406;23.500;2022-08-04T15:33:00;100007.28;;;24.76;44.24
73594;BME280;62064;53.406;23.500;2022-08-04T15:35:28;100010.78;;;24.82;44.43
73594;BME280;62064;53.406;23.500;2022-08-04T15:38:08;100014.38;;;24.82;44.06
73594;BME280;62064;53.406;23.500;2022-08-04T15:45:55;100006.41;;;24.80;43.76
73594;BME280;62064;53.406;23.500;2022-08-04T15:48:27;99996.59;;;24.74;44.01
73594;BME280;62064;53.406;23.500;2022-08-04T15:51:05;100014.13;;;24.78;44.11
73594;BME280;62064;53.406;23.500;2022-08-04T15:58:55;100005.03;;;24.83;43.46
73594;BME280;62064;53.406;23.500;2022-08-04T16:01:21;100012.97;;;24.90;43.86
73594;BME280;62064;53.406;23.500;2022-08-04T16:03:50;100005.59;;;24.85;43.60
73594;BME280;62064;53.406;23.500;2022-08-04T16:19:49;100016.22;;;24.97;43.12
73594;BME280;62064;53.406;23.500;2022-08-04T16:22:37;100016.22;;;24.97;43.16
73594;BME280;62064;53.406;23.500;2022-08-04T16:25:06;100009.91;;;24.96;42.62
73594;BME280;62064;53.406;23.500;2022-08-04T16:27:41;100012.94;;;25.00;42.64
73594;BME280;62064;53.406;23.500;2022-08-04T16:30:13;100003.31;;;24.97;43.19
73594;BME280;62064;53.406;23.500;2022-08-04T16:32:42;100016.19;;;25.02;43.18
73594;BME280;62064;53.406;23.500;2022-08-04T16:35:20;100001.69;;;24.96;43.38
73594;BME280;62064;53.406;23.500;2022-08-04T16:37:47;100007.13;;;25.01;42.89
73594;BME280;62064;53.406;23.500;2022-08-04T16:40:29;100002.19;;;25.03;42.98
73594;BME280;62064;53.406;23.500;2022-08-04T16:43:15;100010.94;;;25.05;43.21
73594;BME280;62064;53.406;23.500;2022-08-04T16:45:55;100009.84;;;25.06;42.63
73594;BME280;62064;53.406;23.500;2022-08-04T16:48:31;100006.84;;;25.08;42.80
73594;BME280;62064;53.406;23.500;2022-08-04T16:51:08;100002.44;;;25.07;42.99
73594;BME280;62064;53.406;23.500;2022-08-04T16:53:38;100009.56;;;25.08;42.75
73594;BME280;62064;53.406;23.500;2022-08-04T16:56:05;100009.28;;;25.09;42.74